createdAt,value
2017-06-19T00:00:20.437Z,927.42
2017-06-19T00:00:48.538Z,927.4
2017-06-19T00:01:16.843Z,927.41
2017-06-19T00:01:45.104Z,927.41
2017-06-19T00:02:13.300Z,927.43
2017-06-19T00:02:41.488Z,927.41
2017-06-19T00:03:52.617Z,927.41
2017-06-19T00:04:20.914Z,927.45
2017-06-19T00:04:49.048Z,927.41
2017-06-19T00:05:17.331Z,927.46
2017-06-19T00:05:45.616Z,927.41
2017-06-19T00:06:13.632Z,927.43
2017-06-19T00:06:41.831Z,927.42
2017-06-19T00:07:09.949Z,927.43
2017-06-19T00:07:38.205Z,927.42
2017-06-19T00:08:06.309Z,927.41
2017-06-19T00:08:34.314Z,927.42
2017-06-19T00:09:45.541Z,927.43
2017-06-19T00:10:13.838Z,927.41
2017-06-19T00:10:42.168Z,927.41
2017-06-19T00:11:10.166Z,927.39
2017-06-19T00:11:38.363Z,927.41
2017-06-19T00:12:06.563Z,927.4
2017-06-19T00:12:34.862Z,927.38
2017-06-19T00:13:02.980Z,927.4
2017-06-19T00:13:31.055Z,927.36
2017-06-19T00:13:59.286Z,927.38
2017-06-19T00:14:27.577Z,927.41
2017-06-19T00:15:38.829Z,927.41
2017-06-19T00:16:06.945Z,927.39
2017-06-19T00:16:35.181Z,927.38
2017-06-19T00:17:03.278Z,927.37
2017-06-19T00:17:31.577Z,927.39
2017-06-19T00:17:59.881Z,927.39
2017-06-19T00:18:28.174Z,927.41
2017-06-19T00:18:56.475Z,927.39
2017-06-19T00:19:24.638Z,927.42
2017-06-19T00:19:52.936Z,927.39
2017-06-19T00:20:21.133Z,927.41
2017-06-19T00:21:32.283Z,927.44
2017-06-19T00:22:00.583Z,927.39
2017-06-19T00:22:28.812Z,927.39
2017-06-19T00:22:56.815Z,927.39
2017-06-19T00:23:25.014Z,927.41
2017-06-19T00:23:53.217Z,927.41
2017-06-19T00:24:21.425Z,927.38
2017-06-19T00:24:49.573Z,927.41
2017-06-19T00:25:17.658Z,927.38
2017-06-19T00:25:45.946Z,927.4
2017-06-19T00:26:13.954Z,927.43
2017-06-19T00:27:25.182Z,927.41
2017-06-19T00:27:53.481Z,927.4
2017-06-19T00:28:21.810Z,927.41
2017-06-19T00:28:49.805Z,927.47
2017-06-19T00:29:18.005Z,927.43
2017-06-19T00:29:46.204Z,927.45
2017-06-19T00:30:14.400Z,927.44
2017-06-19T00:30:42.610Z,927.43
2017-06-19T00:31:10.774Z,927.43
2017-06-19T00:31:38.881Z,927.42
2017-06-19T00:32:07.092Z,927.41
2017-06-19T00:33:18.402Z,927.41
2017-06-19T00:33:46.673Z,927.43
2017-06-19T00:34:14.875Z,927.41
2017-06-19T00:34:43.144Z,927.43
2017-06-19T00:35:11.218Z,927.44
2017-06-19T00:35:39.300Z,927.41
2017-06-19T00:36:07.498Z,927.44
2017-06-19T00:36:35.760Z,927.43
2017-06-19T00:37:03.865Z,927.45
2017-06-19T00:37:31.949Z,927.46
2017-06-19T00:38:00.131Z,927.46
2017-06-19T00:39:11.437Z,927.47
2017-06-19T00:39:39.607Z,927.48
2017-06-19T00:40:07.714Z,927.49
2017-06-19T00:40:35.979Z,927.49
2017-06-19T00:41:04.246Z,927.49
2017-06-19T00:41:32.524Z,927.51
2017-06-19T00:42:00.718Z,927.47
2017-06-19T00:42:28.977Z,927.48
2017-06-19T00:42:57.266Z,927.52
2017-06-19T00:43:25.443Z,927.47
2017-06-19T00:43:53.627Z,927.48
2017-06-19T00:45:04.834Z,927.47
2017-06-19T00:45:33.011Z,927.49
2017-06-19T00:46:01.114Z,927.49
2017-06-19T00:46:29.382Z,927.48
2017-06-19T00:46:57.640Z,927.48
2017-06-19T00:47:25.814Z,927.46
2017-06-19T00:47:54.005Z,927.46
2017-06-19T00:48:22.077Z,927.45
2017-06-19T00:48:50.365Z,927.46
2017-06-19T00:49:18.637Z,927.48
2017-06-19T00:49:46.908Z,927.45
2017-06-19T00:50:58.117Z,927.4
2017-06-19T00:51:26.289Z,927.46
2017-06-19T00:51:54.394Z,927.44
2017-06-19T00:52:22.659Z,927.44
2017-06-19T00:52:50.831Z,927.48
2017-06-19T00:53:18.821Z,927.4
2017-06-19T00:53:47.012Z,927.46
2017-06-19T00:54:15.277Z,927.45
2017-06-19T00:54:43.475Z,927.48
2017-06-19T00:55:11.748Z,927.44
2017-06-19T00:55:39.835Z,927.42
2017-06-19T00:56:50.865Z,927.43
2017-06-19T00:57:19.137Z,927.46
2017-06-19T00:57:47.429Z,927.45
2017-06-19T00:58:15.691Z,927.45
2017-06-19T00:58:43.954Z,927.47
2017-06-19T00:59:12.135Z,927.45
2017-06-19T00:59:40.417Z,927.45
2017-06-19T01:00:08.580Z,927.45
2017-06-19T01:00:36.775Z,927.47
2017-06-19T01:01:04.853Z,927.51
2017-06-19T01:01:33.133Z,927.45
2017-06-19T01:02:44.351Z,927.47
2017-06-19T01:03:12.526Z,927.47
2017-06-19T01:03:40.722Z,927.46
2017-06-19T01:04:08.890Z,927.44
2017-06-19T01:04:36.961Z,927.44
2017-06-19T01:05:04.954Z,927.45
2017-06-19T01:05:33.235Z,927.42
2017-06-19T01:06:01.494Z,927.39
2017-06-19T01:06:29.598Z,927.42
2017-06-19T01:06:57.870Z,927.4
2017-06-19T01:07:26.143Z,927.42
2017-06-19T01:08:37.453Z,927.39
2017-06-19T01:09:05.625Z,927.37
2017-06-19T01:09:33.919Z,927.4
2017-06-19T01:10:01.991Z,927.4
2017-06-19T01:10:30.254Z,927.37
2017-06-19T01:10:58.529Z,927.36
2017-06-19T01:11:26.729Z,927.35
2017-06-19T01:11:54.991Z,927.32
2017-06-19T01:12:23.283Z,927.36
2017-06-19T01:12:51.561Z,927.37
2017-06-19T01:13:19.733Z,927.34
2017-06-19T01:14:30.948Z,927.33
2017-06-19T01:14:59.031Z,927.34
2017-06-19T01:15:27.234Z,927.32
2017-06-19T01:15:55.421Z,927.31
2017-06-19T01:16:23.680Z,927.31
2017-06-19T01:16:51.767Z,927.31
2017-06-19T01:17:19.960Z,927.33
2017-06-19T01:17:48.221Z,927.29
2017-06-19T01:18:16.416Z,927.33
2017-06-19T01:18:44.686Z,927.3
2017-06-19T01:19:12.955Z,927.32
2017-06-19T01:20:24.164Z,927.34
2017-06-19T01:20:52.336Z,927.3
2017-06-19T01:21:20.635Z,927.31
2017-06-19T01:21:48.902Z,927.32
2017-06-19T01:22:17.074Z,927.3
2017-06-19T01:22:45.250Z,927.32
2017-06-19T01:23:13.539Z,927.31
2017-06-19T01:23:41.802Z,927.31
2017-06-19T01:24:09.907Z,927.32
2017-06-19T01:24:38.181Z,927.32
2017-06-19T01:25:06.362Z,927.29
2017-06-19T01:26:17.601Z,927.29
2017-06-19T01:26:45.682Z,927.31
2017-06-19T01:27:13.788Z,927.32
2017-06-19T01:27:41.865Z,927.33
2017-06-19T01:28:09.937Z,927.29
2017-06-19T01:28:38.114Z,927.28
2017-06-19T01:29:06.218Z,927.27
2017-06-19T01:29:34.291Z,927.27
2017-06-19T01:30:02.488Z,927.29
2017-06-19T01:30:30.668Z,927.31
2017-06-19T01:30:58.848Z,927.23
2017-06-19T01:32:10.157Z,927.26
2017-06-19T01:32:38.335Z,927.3
2017-06-19T01:33:06.537Z,927.28
2017-06-19T01:33:34.612Z,927.28
2017-06-19T01:34:02.877Z,927.32
2017-06-19T01:34:31.146Z,927.32
2017-06-19T01:34:59.435Z,927.3
2017-06-19T01:35:27.701Z,927.3
2017-06-19T01:35:55.990Z,927.31
2017-06-19T01:36:24.267Z,927.31
2017-06-19T01:36:52.254Z,927.29
2017-06-19T01:38:03.464Z,927.29
2017-06-19T01:38:31.537Z,927.31
2017-06-19T01:38:59.827Z,927.31
2017-06-19T01:39:27.998Z,927.32
2017-06-19T01:39:56.257Z,927.31
2017-06-19T01:40:24.530Z,927.31
2017-06-19T01:40:52.626Z,927.33
2017-06-19T01:41:20.793Z,927.3
2017-06-19T01:41:49.084Z,927.27
2017-06-19T01:42:17.264Z,927.3
2017-06-19T01:42:45.443Z,927.3
2017-06-19T01:43:56.652Z,927.3
2017-06-19T01:44:24.920Z,927.31
2017-06-19T01:44:53.028Z,927.32
2017-06-19T01:45:21.203Z,927.34
2017-06-19T01:45:49.461Z,927.38
2017-06-19T01:46:17.638Z,927.37
2017-06-19T01:46:45.833Z,927.4
2017-06-19T01:47:14.097Z,927.37
2017-06-19T01:47:42.387Z,927.37
2017-06-19T01:48:10.560Z,927.35
2017-06-19T01:48:38.746Z,927.37
2017-06-19T01:49:50.055Z,927.36
2017-06-19T01:50:18.234Z,927.4
2017-06-19T01:50:46.351Z,927.34
2017-06-19T01:51:14.513Z,927.35
2017-06-19T01:51:42.770Z,927.34
2017-06-19T01:52:10.951Z,927.35
2017-06-19T01:52:39.236Z,927.35
2017-06-19T01:53:07.398Z,927.35
2017-06-19T01:53:35.692Z,927.33
2017-06-19T01:54:03.867Z,927.36
2017-06-19T01:54:32.143Z,927.36
2017-06-19T01:55:43.351Z,927.39
2017-06-19T01:56:11.437Z,927.4
2017-06-19T01:56:39.737Z,927.38
2017-06-19T01:57:07.980Z,927.39
2017-06-19T01:57:36.267Z,927.33
2017-06-19T01:58:04.521Z,927.34
2017-06-19T01:58:32.908Z,927.33
2017-06-19T01:59:01.181Z,927.34
2017-06-19T01:59:29.376Z,927.37
2017-06-19T01:59:57.650Z,927.38
2017-06-19T02:00:25.832Z,927.33
2017-06-19T02:01:37.145Z,927.37
2017-06-19T02:02:05.251Z,927.33
2017-06-19T02:02:33.468Z,927.35
2017-06-19T02:03:01.638Z,927.34
2017-06-19T02:03:29.807Z,927.35
2017-06-19T02:03:57.791Z,927.32
2017-06-19T02:04:25.885Z,927.37
2017-06-19T02:04:54.149Z,927.36
2017-06-19T02:05:22.250Z,927.36
2017-06-19T02:05:50.328Z,927.34
2017-06-19T02:06:18.414Z,927.3
2017-06-19T02:07:29.527Z,927.32
2017-06-19T02:07:57.788Z,927.34
2017-06-19T02:08:25.895Z,927.32
2017-06-19T02:08:54.155Z,927.32
2017-06-19T02:09:22.417Z,927.33
2017-06-19T02:09:50.687Z,927.33
2017-06-19T02:10:18.872Z,927.33
2017-06-19T02:10:47.040Z,927.31
2017-06-19T02:11:15.324Z,927.29
2017-06-19T02:11:43.409Z,927.31
2017-06-19T02:12:11.583Z,927.3
2017-06-19T02:13:22.698Z,927.26
2017-06-19T02:13:50.884Z,927.3
2017-06-19T02:14:19.178Z,927.26
2017-06-19T02:14:47.349Z,927.27
2017-06-19T02:15:15.638Z,927.28
2017-06-19T02:15:43.718Z,927.32
2017-06-19T02:16:12.208Z,927.27
2017-06-19T02:16:40.372Z,927.32
2017-06-19T02:17:08.568Z,927.33
2017-06-19T02:17:36.744Z,927.35
2017-06-19T02:18:04.833Z,927.32
2017-06-19T02:19:16.139Z,927.31
2017-06-19T02:19:44.217Z,927.32
2017-06-19T02:20:12.508Z,927.29
2017-06-19T02:20:40.682Z,927.28
2017-06-19T02:21:08.946Z,927.29
2017-06-19T02:21:37.119Z,927.31
2017-06-19T02:22:05.399Z,927.29
2017-06-19T02:22:33.576Z,927.3
2017-06-19T02:23:01.778Z,927.28
2017-06-19T02:23:30.048Z,927.27
2017-06-19T02:23:58.052Z,927.28
2017-06-19T02:25:09.340Z,927.28
2017-06-19T02:25:37.425Z,927.27
2017-06-19T02:26:05.624Z,927.28
2017-06-19T02:26:33.893Z,927.28
2017-06-19T02:27:01.960Z,927.35
2017-06-19T02:27:30.040Z,927.35
2017-06-19T02:27:58.234Z,927.29
2017-06-19T02:28:26.309Z,927.31
2017-06-19T02:28:54.511Z,927.29
2017-06-19T02:29:22.594Z,927.3
2017-06-19T02:29:50.681Z,927.24
2017-06-19T02:31:01.887Z,927.24
2017-06-19T02:31:30.062Z,927.28
2017-06-19T02:31:58.258Z,927.24
2017-06-19T02:32:26.332Z,927.27
2017-06-19T02:32:54.501Z,927.25
2017-06-19T02:33:22.578Z,927.23
2017-06-19T02:33:50.774Z,927.26
2017-06-19T02:34:18.841Z,927.24
2017-06-19T02:34:47.035Z,927.23
2017-06-19T02:35:15.214Z,927.27
2017-06-19T02:35:43.486Z,927.28
2017-06-19T02:36:54.690Z,927.25
2017-06-19T02:37:22.771Z,927.28
2017-06-19T02:37:51.060Z,927.28
2017-06-19T02:38:18.948Z,927.25
2017-06-19T02:38:47.114Z,927.24
2017-06-19T02:39:15.286Z,927.21
2017-06-19T02:39:43.572Z,927.23
2017-06-19T02:40:11.736Z,927.2
2017-06-19T02:40:39.930Z,927.21
2017-06-19T02:41:08.100Z,927.2
2017-06-19T02:41:36.376Z,927.19
2017-06-19T02:42:47.395Z,927.21
2017-06-19T02:43:15.663Z,927.2
2017-06-19T02:43:43.856Z,927.2
2017-06-19T02:44:12.027Z,927.24
2017-06-19T02:44:40.097Z,927.21
2017-06-19T02:45:08.273Z,927.24
2017-06-19T02:45:36.463Z,927.23
2017-06-19T02:46:04.631Z,927.22
2017-06-19T02:46:32.919Z,927.23
2017-06-19T02:47:01.094Z,927.21
2017-06-19T02:47:29.189Z,927.22
2017-06-19T02:48:40.477Z,927.24
2017-06-19T02:49:08.744Z,927.21
2017-06-19T02:49:37.061Z,927.2
2017-06-19T02:50:05.301Z,927.25
2017-06-19T02:50:33.470Z,927.2
2017-06-19T02:51:01.645Z,927.25
2017-06-19T02:51:29.835Z,927.21
2017-06-19T02:51:58.000Z,927.23
2017-06-19T02:52:26.290Z,927.2
2017-06-19T02:52:54.462Z,927.19
2017-06-19T02:53:22.732Z,927.19
2017-06-19T02:54:34.039Z,927.18
2017-06-19T02:55:02.212Z,927.19
2017-06-19T02:55:30.314Z,927.17
2017-06-19T02:55:58.486Z,927.16
2017-06-19T02:56:26.656Z,927.18
2017-06-19T02:56:54.832Z,927.12
2017-06-19T02:57:23.114Z,927.14
2017-06-19T02:57:51.378Z,927.13
2017-06-19T02:58:19.672Z,927.12
2017-06-19T02:58:47.944Z,927.13
2017-06-19T02:59:16.022Z,927.15
2017-06-19T03:00:27.325Z,927.16
2017-06-19T03:00:55.499Z,927.23
2017-06-19T03:01:23.698Z,927.21
2017-06-19T03:01:51.962Z,927.17
2017-06-19T03:02:20.125Z,927.15
2017-06-19T03:02:48.203Z,927.15
2017-06-19T03:03:16.491Z,927.12
2017-06-19T03:03:44.561Z,927.17
2017-06-19T03:04:12.662Z,927.15
2017-06-19T03:04:40.843Z,927.16
2017-06-19T03:05:09.116Z,927.19
2017-06-19T03:06:20.418Z,927.13
2017-06-19T03:06:48.505Z,927.11
2017-06-19T03:07:16.804Z,927.11
2017-06-19T03:07:44.887Z,927.12
2017-06-19T03:08:13.144Z,927.1
2017-06-19T03:08:41.320Z,927.08
2017-06-19T03:09:09.518Z,927.09
2017-06-19T03:09:37.780Z,927.13
2017-06-19T03:10:05.971Z,927.13
2017-06-19T03:10:34.239Z,927.1
2017-06-19T03:11:02.415Z,927.07
2017-06-19T03:12:13.717Z,927.08
2017-06-19T03:12:41.798Z,927.08
2017-06-19T03:13:10.000Z,927.1
2017-06-19T03:13:38.175Z,927.11
2017-06-19T03:14:06.434Z,927.13
2017-06-19T03:14:34.512Z,927.15
2017-06-19T03:15:02.803Z,927.14
2017-06-19T03:15:30.975Z,927.11
2017-06-19T03:15:59.263Z,927.13
2017-06-19T03:16:27.538Z,927.14
2017-06-19T03:16:55.619Z,927.1
2017-06-19T03:18:06.828Z,927.15
2017-06-19T03:18:34.909Z,927.12
2017-06-19T03:19:03.109Z,927.13
2017-06-19T03:19:31.280Z,927.14
2017-06-19T03:19:59.353Z,927.12
2017-06-19T03:20:27.527Z,927.11
2017-06-19T03:20:55.624Z,927.12
2017-06-19T03:21:23.792Z,927.1
2017-06-19T03:21:52.081Z,927.11
2017-06-19T03:22:20.261Z,927.11
2017-06-19T03:22:48.345Z,927.13
2017-06-19T03:23:59.551Z,927.12
2017-06-19T03:24:27.537Z,927.14
2017-06-19T03:24:55.734Z,927.15
2017-06-19T03:25:23.904Z,927.15
2017-06-19T03:25:52.168Z,927.13
2017-06-19T03:26:20.152Z,927.15
2017-06-19T03:26:48.438Z,927.14
2017-06-19T03:27:16.606Z,927.18
2017-06-19T03:27:44.798Z,927.14
2017-06-19T03:28:12.975Z,927.15
2017-06-19T03:28:41.153Z,927.11
2017-06-19T03:29:52.277Z,927.1
2017-06-19T03:30:20.356Z,927.16
2017-06-19T03:30:48.646Z,927.16
2017-06-19T03:31:16.818Z,927.19
2017-06-19T03:31:44.995Z,927.16
2017-06-19T03:32:13.265Z,927.18
2017-06-19T03:32:41.552Z,927.12
2017-06-19T03:33:09.815Z,927.16
2017-06-19T03:33:38.009Z,927.15
2017-06-19T03:34:06.280Z,927.13
2017-06-19T03:34:34.557Z,927.14
2017-06-19T03:35:45.862Z,927.15
2017-06-19T03:36:13.943Z,927.18
2017-06-19T03:36:42.233Z,927.13
2017-06-19T03:37:10.497Z,927.13
2017-06-19T03:37:38.750Z,927.11
2017-06-19T03:38:06.924Z,927.12
2017-06-19T03:38:35.212Z,927.1
2017-06-19T03:39:03.379Z,927.11
2017-06-19T03:39:31.663Z,927.14
2017-06-19T03:39:59.842Z,927.09
2017-06-19T03:40:28.021Z,927.1
2017-06-19T03:41:39.321Z,927.08
2017-06-19T03:42:07.304Z,927.08
2017-06-19T03:42:35.591Z,927.11
2017-06-19T03:43:03.669Z,927.08
2017-06-19T03:43:31.922Z,927.16
2017-06-19T03:44:00.190Z,927.08
2017-06-19T03:44:28.475Z,927.09
2017-06-19T03:44:56.739Z,927.07
2017-06-19T03:45:25.020Z,927.08
2017-06-19T03:45:53.098Z,927.09
2017-06-19T03:46:21.371Z,927.12
2017-06-19T03:47:32.582Z,927.15
2017-06-19T03:48:00.752Z,927.09
2017-06-19T03:48:28.947Z,927.08
2017-06-19T03:48:57.208Z,927.07
2017-06-19T03:49:25.372Z,927.07
2017-06-19T03:49:53.585Z,927.04
2017-06-19T03:50:21.829Z,927.07
2017-06-19T03:50:49.995Z,927.03
2017-06-19T03:51:18.186Z,927.02
2017-06-19T03:51:46.456Z,927.02
2017-06-19T03:52:14.635Z,927.03
2017-06-19T03:53:25.751Z,927.03
2017-06-19T03:53:54.014Z,927.05
2017-06-19T03:54:22.211Z,927.04
2017-06-19T03:54:50.385Z,927.04
2017-06-19T03:55:18.641Z,927.06
2017-06-19T03:55:46.817Z,927.06
2017-06-19T03:56:15.101Z,927.04
2017-06-19T03:56:43.273Z,927.05
2017-06-19T03:57:11.464Z,927.02
2017-06-19T03:57:39.731Z,927.01
2017-06-19T03:58:07.908Z,926.98
2017-06-19T03:59:19.213Z,927.01
2017-06-19T03:59:47.385Z,927.13
2017-06-19T04:00:15.580Z,927.1
2017-06-19T04:00:43.654Z,927.09
2017-06-19T04:01:11.813Z,927.07
2017-06-19T04:01:39.894Z,927.1
2017-06-19T04:02:08.176Z,927.06
2017-06-19T04:02:36.253Z,927.03
2017-06-19T04:03:04.537Z,927.07
2017-06-19T04:03:32.620Z,927.06
2017-06-19T04:04:00.893Z,927.04
2017-06-19T04:05:12.195Z,927.03
2017-06-19T04:05:40.364Z,927
2017-06-19T04:06:08.657Z,927
2017-06-19T04:06:36.831Z,927.03
2017-06-19T04:07:04.995Z,927
2017-06-19T04:07:33.072Z,927.02
2017-06-19T04:08:01.259Z,926.99
2017-06-19T04:08:29.430Z,926.97
2017-06-19T04:08:57.622Z,926.97
2017-06-19T04:09:25.799Z,926.96
2017-06-19T04:09:53.976Z,926.98
2017-06-19T04:11:05.281Z,926.95
2017-06-19T04:11:33.450Z,926.99
2017-06-19T04:12:01.741Z,927
2017-06-19T04:12:29.914Z,926.99
2017-06-19T04:12:58.073Z,927
2017-06-19T04:13:26.154Z,926.97
2017-06-19T04:13:54.436Z,926.95
2017-06-19T04:14:22.506Z,926.96
2017-06-19T04:14:50.730Z,926.94
2017-06-19T04:15:18.883Z,926.92
2017-06-19T04:15:47.155Z,926.92
2017-06-19T04:16:58.458Z,926.93
2017-06-19T04:17:26.626Z,926.94
2017-06-19T04:17:54.724Z,926.99
2017-06-19T04:18:22.981Z,926.98
2017-06-19T04:18:51.239Z,927
2017-06-19T04:19:19.322Z,926.97
2017-06-19T04:19:47.603Z,926.96
2017-06-19T04:20:15.772Z,926.96
2017-06-19T04:20:43.961Z,926.95
2017-06-19T04:21:12.043Z,926.94
2017-06-19T04:21:40.044Z,926.95
2017-06-19T04:22:51.346Z,926.89
2017-06-19T04:23:19.331Z,926.9
2017-06-19T04:23:47.527Z,926.91
2017-06-19T04:24:15.786Z,926.89
2017-06-19T04:24:43.952Z,926.91
2017-06-19T04:25:11.944Z,926.93
2017-06-19T04:25:40.133Z,926.94
2017-06-19T04:26:08.397Z,926.9
2017-06-19T04:26:36.493Z,926.9
2017-06-19T04:27:04.763Z,926.93
2017-06-19T04:27:32.850Z,926.87
2017-06-19T04:28:44.152Z,926.89
2017-06-19T04:29:12.134Z,926.84
2017-06-19T04:29:40.164Z,926.85
2017-06-19T04:30:08.327Z,926.88
2017-06-19T04:30:36.483Z,926.88
2017-06-19T04:31:04.560Z,926.86
2017-06-19T04:31:32.842Z,926.88
2017-06-19T04:32:01.108Z,926.88
2017-06-19T04:32:29.026Z,926.93
2017-06-19T04:32:57.288Z,926.88
2017-06-19T04:33:25.561Z,926.88
2017-06-19T04:34:36.859Z,926.88
2017-06-19T04:35:05.121Z,926.9
2017-06-19T04:35:33.407Z,926.94
2017-06-19T04:36:01.482Z,926.9
2017-06-19T04:36:29.734Z,926.89
2017-06-19T04:36:58.001Z,926.88
2017-06-19T04:37:26.191Z,926.87
2017-06-19T04:37:54.446Z,926.85
2017-06-19T04:38:22.639Z,926.87
2017-06-19T04:38:50.810Z,926.84
2017-06-19T04:39:18.706Z,926.89
2017-06-19T04:40:30.006Z,926.88
2017-06-19T04:40:57.989Z,926.87
2017-06-19T04:41:26.186Z,926.82
2017-06-19T04:41:54.357Z,926.84
2017-06-19T04:42:22.235Z,926.83
2017-06-19T04:42:50.221Z,926.82
2017-06-19T04:43:18.418Z,926.84
2017-06-19T04:43:46.584Z,926.84
2017-06-19T04:44:14.677Z,926.83
2017-06-19T04:44:42.850Z,926.84
2017-06-19T04:45:10.937Z,926.8
2017-06-19T04:46:22.234Z,926.8
2017-06-19T04:46:50.315Z,926.79
2017-06-19T04:47:18.511Z,926.77
2017-06-19T04:47:46.675Z,926.81
2017-06-19T04:48:14.838Z,926.77
2017-06-19T04:48:43.107Z,926.8
2017-06-19T04:49:11.389Z,926.76
2017-06-19T04:49:39.647Z,926.78
2017-06-19T04:50:07.748Z,926.76
2017-06-19T04:50:36.010Z,926.73
2017-06-19T04:51:04.094Z,926.73
2017-06-19T04:52:15.303Z,926.69
2017-06-19T04:52:43.471Z,926.71
2017-06-19T04:53:11.667Z,926.72
2017-06-19T04:53:39.925Z,926.65
2017-06-19T04:54:07.989Z,926.7
2017-06-19T04:54:36.257Z,926.65
2017-06-19T04:55:04.447Z,926.67
2017-06-19T04:55:32.522Z,926.63
2017-06-19T04:56:00.708Z,926.63
2017-06-19T04:56:28.878Z,926.63
2017-06-19T04:56:56.962Z,926.67
2017-06-19T04:58:08.264Z,926.65
2017-06-19T04:58:36.432Z,926.66
2017-06-19T04:59:04.630Z,926.64
2017-06-19T04:59:32.889Z,926.62
2017-06-19T05:00:01.142Z,926.64
2017-06-19T05:00:29.409Z,926.62
2017-06-19T05:00:57.691Z,926.62
2017-06-19T05:01:25.955Z,926.65
2017-06-19T05:01:54.148Z,926.66
2017-06-19T05:02:22.422Z,926.64
2017-06-19T05:02:50.604Z,926.64
2017-06-19T05:04:01.908Z,926.64
2017-06-19T05:04:30.173Z,926.63
2017-06-19T05:04:58.271Z,926.63
2017-06-19T05:05:26.528Z,926.66
2017-06-19T05:05:54.689Z,926.64
2017-06-19T05:06:22.770Z,926.65
2017-06-19T05:06:51.053Z,926.65
2017-06-19T05:07:19.308Z,926.63
2017-06-19T05:07:47.500Z,926.62
2017-06-19T05:08:15.478Z,926.58
2017-06-19T05:08:43.563Z,926.61
2017-06-19T05:09:54.767Z,926.6
2017-06-19T05:10:22.847Z,926.57
2017-06-19T05:10:50.864Z,926.55
2017-06-19T05:11:19.032Z,926.57
2017-06-19T05:11:47.193Z,926.58
2017-06-19T05:12:15.174Z,926.56
2017-06-19T05:12:43.362Z,926.57
2017-06-19T05:13:11.530Z,926.54
2017-06-19T05:13:39.623Z,926.54
2017-06-19T05:14:07.792Z,926.56
2017-06-19T05:14:35.968Z,926.57
2017-06-19T05:15:47.168Z,926.55
2017-06-19T05:16:15.427Z,926.57
2017-06-19T05:16:43.620Z,926.58
2017-06-19T05:17:11.881Z,926.53
2017-06-19T05:17:40.044Z,926.55
2017-06-19T05:18:08.022Z,926.54
2017-06-19T05:18:36.206Z,926.56
2017-06-19T05:19:04.373Z,926.59
2017-06-19T05:19:32.655Z,926.58
2017-06-19T05:20:00.731Z,926.56
2017-06-19T05:20:29.019Z,926.55
2017-06-19T05:21:40.306Z,926.57
2017-06-19T05:22:08.564Z,926.54
2017-06-19T05:22:36.754Z,926.52
2017-06-19T05:23:04.825Z,926.52
2017-06-19T05:23:32.886Z,926.51
2017-06-19T05:24:00.962Z,926.52
2017-06-19T05:24:29.151Z,926.48
2017-06-19T05:24:57.316Z,926.54
2017-06-19T05:25:25.503Z,926.5
2017-06-19T05:25:53.675Z,926.48
2017-06-19T05:26:21.949Z,926.53
2017-06-19T05:27:33.248Z,926.52
2017-06-19T05:28:01.325Z,926.56
2017-06-19T05:28:29.520Z,926.5
2017-06-19T05:28:57.680Z,926.48
2017-06-19T05:29:25.844Z,926.5
2017-06-19T05:29:54.112Z,926.45
2017-06-19T05:30:22.388Z,926.47
2017-06-19T05:30:50.648Z,926.45
2017-06-19T05:31:18.930Z,926.42
2017-06-19T05:31:47.101Z,926.43
2017-06-19T05:32:15.095Z,926.4
2017-06-19T05:33:26.299Z,926.42
2017-06-19T05:33:54.465Z,926.4
2017-06-19T05:34:22.746Z,926.4
2017-06-19T05:34:50.821Z,926.38
2017-06-19T05:35:19.081Z,926.36
2017-06-19T05:35:47.347Z,926.31
2017-06-19T05:36:15.538Z,926.34
2017-06-19T05:36:43.609Z,926.35
2017-06-19T05:37:11.895Z,926.34
2017-06-19T05:37:40.165Z,926.35
2017-06-19T05:38:08.148Z,926.35
2017-06-19T05:39:19.264Z,926.33
2017-06-19T05:39:47.432Z,926.32
2017-06-19T05:40:15.631Z,926.33
2017-06-19T05:40:43.798Z,926.32
2017-06-19T05:41:11.960Z,926.27
2017-06-19T05:41:40.132Z,926.29
2017-06-19T05:42:08.316Z,926.27
2017-06-19T05:42:36.575Z,926.28
2017-06-19T05:43:04.672Z,926.26
2017-06-19T05:43:32.845Z,926.26
2017-06-19T05:44:01.115Z,926.27
2017-06-19T05:45:12.324Z,926.24
2017-06-19T05:45:40.401Z,926.24
2017-06-19T05:46:08.688Z,926.24
2017-06-19T05:46:36.852Z,926.23
2017-06-19T05:47:05.018Z,926.23
2017-06-19T05:47:33.192Z,926.23
2017-06-19T05:48:01.382Z,926.2
2017-06-19T05:48:29.453Z,926.17
2017-06-19T05:48:57.640Z,926.18
2017-06-19T05:49:25.733Z,926.22
2017-06-19T05:49:54.002Z,926.19
2017-06-19T05:51:05.116Z,926.2
2017-06-19T05:51:33.288Z,926.2
2017-06-19T05:52:01.581Z,926.21
2017-06-19T05:52:29.745Z,926.14
2017-06-19T05:52:57.817Z,926.16
2017-06-19T05:53:25.985Z,926.14
2017-06-19T05:53:54.175Z,926.13
2017-06-19T05:54:22.152Z,926.16
2017-06-19T05:54:50.160Z,926.18
2017-06-19T05:55:18.329Z,926.14
2017-06-19T05:55:46.599Z,926.12
2017-06-19T05:56:57.898Z,926.16
2017-06-19T05:57:26.069Z,926.14
2017-06-19T05:57:54.267Z,926.12
2017-06-19T05:58:22.251Z,926.13
2017-06-19T05:58:50.518Z,926.12
2017-06-19T05:59:18.685Z,926.15
2017-06-19T05:59:46.974Z,926.13
2017-06-19T06:00:15.137Z,926.14
2017-06-19T06:00:43.239Z,926.09
2017-06-19T06:01:11.507Z,926.06
2017-06-19T06:01:39.592Z,926.12
2017-06-19T06:02:50.799Z,926.1
2017-06-19T06:03:18.975Z,926.1
2017-06-19T06:03:47.268Z,926.11
2017-06-19T06:04:15.533Z,926.1
2017-06-19T06:04:43.604Z,926.07
2017-06-19T06:05:11.776Z,926.09
2017-06-19T06:05:39.881Z,926.06
2017-06-19T06:06:08.048Z,926.1
2017-06-19T06:06:36.052Z,926.12
2017-06-19T06:07:04.318Z,926.09
2017-06-19T06:07:32.492Z,926.1
2017-06-19T06:08:43.794Z,926.05
2017-06-19T06:09:11.964Z,926.1
2017-06-19T06:09:40.160Z,926.1
2017-06-19T06:10:08.325Z,926.14
2017-06-19T06:10:36.497Z,926.12
2017-06-19T06:11:04.762Z,926.13
2017-06-19T06:11:32.951Z,926.13
2017-06-19T06:12:01.213Z,926.08
2017-06-19T06:12:29.405Z,926.12
2017-06-19T06:12:57.676Z,926.09
2017-06-19T06:13:25.851Z,926.11
2017-06-19T06:14:36.966Z,926.09
2017-06-19T06:15:05.134Z,926.05
2017-06-19T06:15:33.342Z,926.05
2017-06-19T06:16:01.414Z,926.07
2017-06-19T06:16:29.577Z,926.05
2017-06-19T06:16:57.752Z,926.04
2017-06-19T06:17:26.036Z,926.06
2017-06-19T06:17:54.203Z,926.03
2017-06-19T06:18:22.492Z,926.05
2017-06-19T06:18:50.763Z,926.02
2017-06-19T06:19:19.033Z,926.03
2017-06-19T06:20:30.336Z,926
2017-06-19T06:20:58.509Z,925.97
2017-06-19T06:21:26.803Z,925.98
2017-06-19T06:21:54.878Z,926
2017-06-19T06:22:23.134Z,926
2017-06-19T06:22:51.401Z,926.02
2017-06-19T06:23:19.501Z,926.02
2017-06-19T06:23:47.664Z,926.03
2017-06-19T06:24:15.867Z,926
2017-06-19T06:24:44.138Z,926.05
2017-06-19T06:25:12.224Z,926.04
2017-06-19T06:26:23.528Z,926.03
2017-06-19T06:26:51.694Z,926.02
2017-06-19T06:27:19.986Z,926.05
2017-06-19T06:27:48.156Z,926.03
2017-06-19T06:28:16.413Z,926.05
2017-06-19T06:28:44.683Z,926.04
2017-06-19T06:29:12.875Z,926.01
2017-06-19T06:29:41.135Z,925.99
2017-06-19T06:30:09.138Z,926.03
2017-06-19T06:30:37.218Z,926.01
2017-06-19T06:31:05.301Z,926.05
2017-06-19T06:32:16.511Z,926.03
2017-06-19T06:32:44.677Z,926.01
2017-06-19T06:33:12.873Z,926.04
2017-06-19T06:33:41.045Z,926.03
2017-06-19T06:34:09.305Z,926.04
2017-06-19T06:34:37.478Z,926.07
2017-06-19T06:35:05.591Z,926.09
2017-06-19T06:35:33.850Z,926.04
2017-06-19T06:36:02.040Z,926.08
2017-06-19T06:36:30.313Z,926.08
2017-06-19T06:36:58.394Z,926.07
2017-06-19T06:38:09.694Z,926.08
2017-06-19T06:38:37.960Z,926.09
2017-06-19T06:39:06.161Z,926.03
2017-06-19T06:39:34.425Z,926.06
2017-06-19T06:40:02.402Z,926.05
2017-06-19T06:40:30.481Z,926.06
2017-06-19T06:40:58.579Z,926.06
2017-06-19T06:41:26.653Z,926.05
2017-06-19T06:41:54.752Z,926.08